Time;durP1;ratioP1;P1;durP2;ratioP2;P2;SDS_P1;SDS_P2;PMS_P1;PMS_P2;Temp;Humidity;BMP_temperature;BMP_pressure;BME280_temperature;BME280_humidity;BME280_pressure;Samples;Min_cycle;Max_cycle;Signal;HPM_P1;HPM_P2
2023/06/13 00:02:17;;;;;;;10.25;2.83;;;;;;;;;;6232441;22;20019;-90
2023/06/13 00:04:45;;;;;;;6.13;3.10;;;;;;;;;;6259176;22;20107;-89
2023/06/13 00:07:12;;;;;;;7.28;3.53;;;;;;;;;;6286222;22;20038;-90
2023/06/13 00:09:48;;;;;;;9.85;3.97;;;;;;;;;;6285289;22;20028;-89
2023/06/13 00:12:20;;;;;;;6.93;3.85;;;;;;;;;;6234160;22;20015;-89
2023/06/13 00:14:50;;;;;;;7.63;3.55;;;;;;;;;;6232057;22;20015;-89
2023/06/13 00:17:17;;;;;;;5.78;3.53;;;;;;;;;;6232342;22;20042;-89
2023/06/13 00:19:48;;;;;;;9.07;4.03;;;;;;;;;;6231355;22;20016;-91
2023/06/13 00:22:24;;;;;;;12.52;4.40;;;;;;;;;;6282855;22;20038;-90
2023/06/13 00:25:02;;;;;;;7.00;4.00;;;;;;;;;;6263518;22;20011;-90
2023/06/13 00:27:32;;;;;;;6.13;4.18;;;;;;;;;;6258773;22;20012;-90
2023/06/13 00:29:59;;;;;;;8.38;3.83;;;;;;;;;;6259109;22;20083;-89
2023/06/13 00:32:35;;;;;;;7.50;4.40;;;;;;;;;;6233437;22;20015;-90
2023/06/13 00:35:09;;;;;;;9.70;4.38;;;;;;;;;;6232405;22;20012;-89
2023/06/13 00:37:38;;;;;;;8.70;4.00;;;;;;;;;;6258245;22;20065;-89
2023/06/13 00:40:05;;;;;;;7.88;4.32;;;;;;;;;;6232589;22;19992;-89
2023/06/13 00:42:32;;;;;;;8.43;4.68;;;;;;;;;;6232026;22;20008;-89
2023/06/13 00:45:17;;;;;;;8.50;4.90;;;;;;;;;;6257142;22;20012;-88
2023/06/13 00:47:51;;;;;;;8.25;4.88;;;;;;;;;;6256169;22;20081;-90
2023/06/13 00:50:26;;;;;;;15.60;5.07;;;;;;;;;;6285404;22;20003;-89
2023/06/13 00:53:01;;;;;;;9.40;5.38;;;;;;;;;;6255937;22;20008;-89
2023/06/13 00:55:36;;;;;;;11.15;4.70;;;;;;;;;;6260518;22;20031;-90
2023/06/13 00:58:11;;;;;;;14.32;5.15;;;;;;;;;;6231073;22;20043;-90
2023/06/13 01:00:52;;;;;;;7.57;4.85;;;;;;;;;;6256063;22;20011;-89
2023/06/13 01:03:35;;;;;;;11.63;4.68;;;;;;;;;;6258449;22;20008;-89
2023/06/13 01:06:33;;;;;;;8.73;3.92;;;;;;;;;;6258410;22;20453;-90
2023/06/13 01:09:02;;;;;;;9.20;4.90;;;;;;;;;;6284492;22;20038;-90
2023/06/13 01:11:58;;;;;;;10.05;4.65;;;;;;;;;;6257842;22;20008;-90
2023/06/13 01:14:46;;;;;;;9.30;5.55;;;;;;;;;;6246704;22;20063;-89
2023/06/13 01:17:18;;;;;;;9.90;5.50;;;;;;;;;;6256253;22;20004;-89
2023/06/13 01:19:50;;;;;;;9.57;5.25;;;;;;;;;;6255483;22;20090;-88
2023/06/13 01:22:38;;;;;;;8.55;5.35;;;;;;;;;;6256412;22;20019;-89
2023/06/13 01:25:23;;;;;;;10.10;5.38;;;;;;;;;;6254206;22;20007;-88
2023/06/13 01:27:51;;;;;;;10.80;5.60;;;;;;;;;;6256370;22;20063;-89
2023/06/13 01:30:19;;;;;;;14.40;5.30;;;;;;;;;;6251934;22;20000;-89
2023/06/13 01:32:47;;;;;;;9.07;5.38;;;;;;;;;;6254733;22;20004;-89
2023/06/13 01:35:14;;;;;;;7.32;4.78;;;;;;;;;;6257176;22;20007;-89
2023/06/13 01:37:41;;;;;;;15.30;5.78;;;;;;;;;;6231637;22;20027;-89
2023/06/13 01:40:09;;;;;;;10.55;5.55;;;;;;;;;;6253191;22;20038;-89
2023/06/13 01:42:36;;;;;;;10.00;5.95;;;;;;;;;;6256940;22;20015;-89
2023/06/13 01:45:05;;;;;;;11.45;6.03;;;;;;;;;;6250084;22;20042;-90
2023/06/13 01:47:36;;;;;;;14.98;5.97;;;;;;;;;;6231222;22;20003;-90
2023/06/13 01:50:06;;;;;;;16.80;6.03;;;;;;;;;;6257167;22;19991;-89
2023/06/13 01:52:59;;;;;;;10.68;5.63;;;;;;;;;;6256569;22;20027;-90
2023/06/13 01:55:52;;;;;;;11.65;6.18;;;;;;;;;;6258807;22;20011;-90
2023/06/13 01:58:38;;;;;;;11.20;5.38;;;;;;;;;;6279116;22;20004;-90
2023/06/13 02:01:06;;;;;;;10.70;5.65;;;;;;;;;;6256118;22;20028;-90
2023/06/13 02:03:36;;;;;;;9.18;5.30;;;;;;;;;;6257980;22;20004;-90
2023/06/13 02:06:03;;;;;;;14.68;5.20;;;;;;;;;;6285239;22;20019;-90
2023/06/13 02:09:03;;;;;;;9.40;4.65;;;;;;;;;;6258406;22;20019;-90
2023/06/13 02:11:35;;;;;;;7.28;4.20;;;;;;;;;;6177627;22;20008;-90
2023/06/13 02:14:02;;;;;;;7.40;4.65;;;;;;;;;;6235246;22;20003;-88
2023/06/13 02:16:30;;;;;;;12.00;5.22;;;;;;;;;;6232714;22;20014;-90
2023/06/13 02:19:01;;;;;;;10.02;4.38;;;;;;;;;;6232911;22;20035;-89
2023/06/13 02:21:30;;;;;;;7.15;4.30;;;;;;;;;;6283402;22;20059;-89
2023/06/13 02:23:58;;;;;;;7.78;4.45;;;;;;;;;;6257803;22;19992;-89
2023/06/13 02:26:28;;;;;;;8.77;3.72;;;;;;;;;;6259343;22;20027;-89
2023/06/13 02:29:12;;;;;;;5.88;3.80;;;;;;;;;;6261101;22;20022;-89
2023/06/13 02:31:39;;;;;;;8.88;4.82;;;;;;;;;;6256407;22;19999;-89
2023/06/13 02:34:06;;;;;;;10.48;4.45;;;;;;;;;;6258359;22;20042;-89
2023/06/13 02:36:33;;;;;;;7.82;4.50;;;;;;;;;;6256818;22;20007;-89
2023/06/13 02:39:03;;;;;;;10.43;4.85;;;;;;;;;;6257041;22;20003;-88
2023/06/13 02:41:30;;;;;;;9.55;4.30;;;;;;;;;;6231639;22;20016;-89
2023/06/13 02:44:02;;;;;;;10.27;4.20;;;;;;;;;;6255870;22;20091;-89
2023/06/13 02:49:30;;;;;;;7.93;4.50;;;;;;;;;;6216747;22;20042;-88
2023/06/13 02:51:57;;;;;;;14.52;4.63;;;;;;;;;;6255878;22;20007;-88
2023/06/13 02:54:33;;;;;;;7.00;4.38;;;;;;;;;;6262413;22;20011;-89
2023/06/13 02:57:00;;;;;;;6.68;4.20;;;;;;;;;;6286720;22;20617;-89
2023/06/13 02:59:51;;;;;;;7.38;4.50;;;;;;;;;;6287209;22;19999;-89
2023/06/13 03:02:25;;;;;;;9.18;4.82;;;;;;;;;;6285461;22;20033;-90
2023/06/13 03:05:11;;;;;;;10.50;4.72;;;;;;;;;;6288789;22;20007;-88
2023/06/13 03:07:42;;;;;;;17.13;4.60;;;;;;;;;;6265712;22;20007;-89
2023/06/13 03:10:39;;;;;;;;;;;;;;;;;;;;;
2023/06/13 03:13:06;;;;;;;12.95;4.82;;;;;;;;;;6313292;22;20057;-89
2023/06/13 03:15:40;;;;;;;10.40;4.43;;;;;;;;;;6261842;22;20015;-88
2023/06/13 03:18:06;;;;;;;11.15;4.20;;;;;;;;;;6261550;22;20019;-89
2023/06/13 03:20:52;;;;;;;11.00;4.22;;;;;;;;;;6288117;22;20031;-88
2023/06/13 03:23:18;;;;;;;12.15;3.95;;;;;;;;;;6263647;22;20011;-90
2023/06/13 03:25:46;;;;;;;13.13;4.18;;;;;;;;;;6261225;22;20011;-90
2023/06/13 03:28:15;;;;;;;11.13;4.68;;;;;;;;;;6268059;22;20003;-90
2023/06/13 03:30:43;;;;;;;6.28;4.15;;;;;;;;;;6293449;22;20010;-90
2023/06/13 03:33:22;;;;;;;7.32;4.22;;;;;;;;;;6267351;22;20038;-90
2023/06/13 03:35:52;;;;;;;5.97;3.83;;;;;;;;;;6293865;22;20345;-88
2023/06/13 03:43:37;;;;;;;7.30;4.15;;;;;;;;;;6262901;22;20055;-92
2023/06/13 03:46:13;;;;;;;7.88;4.57;;;;;;;;;;6229361;22;20559;-92
2023/06/13 03:48:40;;;;;;;8.73;5.15;;;;;;;;;;6223614;23;20008;-92
2023/06/13 03:51:09;;;;;;;7.20;4.28;;;;;;;;;;6250679;23;20034;-92
2023/06/13 03:53:36;;;;;;;6.30;4.50;;;;;;;;;;6229193;23;20011;-92
2023/06/13 03:56:02;;;;;;;7.85;5.00;;;;;;;;;;6228776;23;20010;-92
2023/06/13 03:58:29;;;;;;;8.07;4.60;;;;;;;;;;6228385;23;20023;-92
2023/06/13 04:00:59;;;;;;;8.43;4.45;;;;;;;;;;6253099;23;20028;-93
2023/06/13 04:03:29;;;;;;;6.28;3.78;;;;;;;;;;6227523;23;20022;-92
2023/06/13 04:05:55;;;;;;;5.90;4.07;;;;;;;;;;6228136;23;20023;-92
2023/06/13 04:08:23;;;;;;;12.90;4.72;;;;;;;;;;6225919;23;20019;-92
2023/06/13 04:10:49;;;;;;;6.78;4.53;;;;;;;;;;6225831;23;20008;-92
2023/06/13 04:13:18;;;;;;;10.98;4.22;;;;;;;;;;6226460;23;20427;-92
2023/06/13 04:15:45;;;;;;;10.18;4.70;;;;;;;;;;6223480;23;20083;-91
2023/06/13 04:18:11;;;;;;;14.95;5.80;;;;;;;;;;6223035;23;20016;-92
2023/06/13 04:20:38;;;;;;;8.95;4.32;;;;;;;;;;6223339;23;20036;-92
2023/06/13 04:23:04;;;;;;;6.22;4.53;;;;;;;;;;6222532;23;20011;-92
2023/06/13 04:25:32;;;;;;;8.00;4.47;;;;;;;;;;6219809;23;20020;-92
2023/06/13 04:27:58;;;;;;;9.00;4.50;;;;;;;;;;6221043;23;20008;-93
2023/06/13 04:30:25;;;;;;;8.18;4.50;;;;;;;;;;6244977;23;19996;-93
2023/06/13 04:32:51;;;;;;;9.75;4.05;;;;;;;;;;6221890;23;20047;-92
2023/06/13 04:35:22;;;;;;;14.70;5.03;;;;;;;;;;6221121;23;20442;-92
2023/06/13 04:37:48;;;;;;;9.07;4.95;;;;;;;;;;6246389;23;20091;-93
2023/06/13 04:40:16;;;;;;;11.10;4.55;;;;;;;;;;6222575;23;20035;-93
2023/06/13 04:42:52;;;;;;;15.82;4.93;;;;;;;;;;6221048;22;20008;-93
2023/06/13 04:45:21;;;;;;;8.10;4.63;;;;;;;;;;6223655;23;20071;-93
2023/06/13 04:47:48;;;;;;;7.97;4.82;;;;;;;;;;6220387;23;20011;-92
2023/06/13 04:50:19;;;;;;;9.77;4.53;;;;;;;;;;6220516;23;20028;-92
2023/06/13 04:52:45;;;;;;;11.27;4.47;;;;;;;;;;6195075;23;20012;-92
2023/06/13 04:55:14;;;;;;;7.22;4.32;;;;;;;;;;6219660;23;20012;-93
2023/06/13 04:57:43;;;;;;;9.52;4.53;;;;;;;;;;6198133;23;20012;-92
2023/06/13 05:00:10;;;;;;;9.60;4.10;;;;;;;;;;6197983;23;20390;-92
2023/06/13 05:02:38;;;;;;;8.05;4.07;;;;;;;;;;6196773;23;20349;-92
2023/06/13 05:05:05;;;;;;;10.50;4.07;;;;;;;;;;6224081;23;20092;-92
2023/06/13 05:07:31;;;;;;;12.13;4.45;;;;;;;;;;6193864;23;20008;-92
2023/06/13 05:09:58;;;;;;;6.95;4.68;;;;;;;;;;6194140;23;20016;-92
2023/06/13 05:12:24;;;;;;;6.82;4.28;;;;;;;;;;6192991;23;20036;-93
2023/06/13 05:14:55;;;;;;;6.90;3.78;;;;;;;;;;6217758;23;20018;-92
2023/06/13 05:17:22;;;;;;;6.25;3.90;;;;;;;;;;6217667;23;20434;-92
2023/06/13 05:19:52;;;;;;;14.38;4.05;;;;;;;;;;6192238;23;20019;-91
2023/06/13 05:22:23;;;;;;;8.13;3.70;;;;;;;;;;6194389;23;20008;-92
2023/06/13 05:24:51;;;;;;;6.72;3.33;;;;;;;;;;6218669;23;20020;-93
2023/06/13 05:27:17;;;;;;;7.82;3.78;;;;;;;;;;6194758;23;20087;-92
2023/06/13 05:29:43;;;;;;;5.30;3.55;;;;;;;;;;6197864;23;20350;-92
2023/06/13 05:32:10;;;;;;;7.13;3.80;;;;;;;;;;6193544;23;20011;-91
2023/06/13 05:34:36;;;;;;;8.07;3.30;;;;;;;;;;6192527;23;20004;-92
2023/06/13 05:37:10;;;;;;;10.23;3.75;;;;;;;;;;6190460;23;20013;-92
2023/06/13 05:39:36;;;;;;;5.82;3.05;;;;;;;;;;6191020;23;20015;-91
2023/06/13 05:42:07;;;;;;;4.60;3.42;;;;;;;;;;6190241;23;20012;-91
2023/06/13 05:44:39;;;;;;;7.68;3.30;;;;;;;;;;6231454;22;20024;-92
2023/06/13 05:47:06;;;;;;;10.63;4.25;;;;;;;;;;6215134;23;20087;-93
2023/06/13 05:49:38;;;;;;;5.97;3.22;;;;;;;;;;6218041;23;20063;-92
2023/06/13 05:52:05;;;;;;;9.35;3.38;;;;;;;;;;6218402;23;20094;-93
2023/06/13 05:54:32;;;;;;;7.72;3.47;;;;;;;;;;6243749;23;20004;-93
2023/06/13 05:57:01;;;;;;;5.85;3.17;;;;;;;;;;6216314;23;20008;-93
2023/06/13 05:59:27;;;;;;;9.05;3.55;;;;;;;;;;6242742;23;20008;-93
2023/06/13 06:01:54;;;;;;;13.63;3.90;;;;;;;;;;6218414;23;20016;-92
2023/06/13 06:04:21;;;;;;;9.63;3.55;;;;;;;;;;6242274;23;20012;-93
2023/06/13 06:06:58;;;;;;;6.13;3.35;;;;;;;;;;6218303;23;20059;-92
2023/06/13 06:09:24;;;;;;;5.32;2.95;;;;;;;;;;6217362;23;20015;-92
2023/06/13 06:11:51;;;;;;;4.97;3.05;;;;;;;;;;6215138;23;20015;-92
2023/06/13 06:14:18;;;;;;;10.43;2.95;;;;;;;;;;6217430;23;20004;-92
2023/06/13 06:16:44;;;;;;;5.07;3.25;;;;;;;;;;6217113;23;20118;-92
2023/06/13 06:19:10;;;;;;;16.40;2.80;;;;;;;;;;6242341;23;20015;-92
2023/06/13 06:21:36;;;;;;;15.60;3.55;;;;;;;;;;6242928;23;20474;-91
2023/06/13 06:24:03;;;;;;;7.07;3.05;;;;;;;;;;6217726;23;20046;-92
2023/06/13 06:26:29;;;;;;;5.25;3.20;;;;;;;;;;6216663;23;20458;-92
2023/06/13 06:28:55;;;;;;;4.32;3.38;;;;;;;;;;6241551;23;20008;-93
2023/06/13 06:31:21;;;;;;;4.00;2.83;;;;;;;;;;6216593;23;20466;-91
2023/06/13 06:33:48;;;;;;;4.05;2.70;;;;;;;;;;6241574;23;20405;-92
2023/06/13 06:36:15;;;;;;;3.97;2.53;;;;;;;;;;6217849;23;20305;-91
2023/06/13 06:38:42;;;;;;;5.47;2.95;;;;;;;;;;6217932;23;20040;-91
2023/06/13 06:41:09;;;;;;;4.78;2.60;;;;;;;;;;6216893;23;20012;-92
2023/06/13 06:43:51;;;;;;;3.28;2.55;;;;;;;;;;6246380;22;20429;-92
2023/06/13 06:46:21;;;;;;;7.82;2.38;;;;;;;;;;6246373;22;19999;-92
2023/06/13 06:48:48;;;;;;;3.47;2.70;;;;;;;;;;6222328;22;20437;-92
2023/06/13 06:51:15;;;;;;;5.68;2.20;;;;;;;;;;6247897;22;20103;-92
2023/06/13 06:53:43;;;;;;;6.85;2.63;;;;;;;;;;6222067;22;20039;-92
2023/06/13 06:56:21;;;;;;;6.60;2.90;;;;;;;;;;6248611;22;20004;-93
2023/06/13 06:58:47;;;;;;;5.00;2.25;;;;;;;;;;6222106;22;20008;-93
2023/06/13 07:01:18;;;;;;;6.00;2.85;;;;;;;;;;6246807;22;20004;-92
2023/06/13 07:03:45;;;;;;;4.60;2.55;;;;;;;;;;6246654;22;20094;-92
2023/06/13 07:06:12;;;;;;;3.67;2.35;;;;;;;;;;6247367;22;20296;-91
2023/06/13 07:08:39;;;;;;;5.30;2.40;;;;;;;;;;6222107;22;20012;-92
2023/06/13 07:11:06;;;;;;;5.88;2.70;;;;;;;;;;6222305;22;20069;-91
2023/06/13 07:13:33;;;;;;;4.03;2.75;;;;;;;;;;6220591;22;20008;-91
2023/06/13 07:16:00;;;;;;;10.23;2.88;;;;;;;;;;6221470;22;20546;-91
2023/06/13 07:21:11;;;;;;;7.80;2.73;;;;;;;;;;6276016;22;20026;-91
2023/06/13 07:23:37;;;;;;;7.05;2.30;;;;;;;;;;6222801;22;20018;-91
2023/06/13 07:26:07;;;;;;;6.28;3.00;;;;;;;;;;6247675;22;20116;-91
2023/06/13 07:28:39;;;;;;;5.50;2.85;;;;;;;;;;6224699;22;20250;-92
2023/06/13 07:31:06;;;;;;;7.00;3.00;;;;;;;;;;6247548;22;20074;-91
2023/06/13 07:33:32;;;;;;;5.00;2.97;;;;;;;;;;6249185;22;20011;-92
2023/06/13 07:36:01;;;;;;;7.95;2.38;;;;;;;;;;6275417;22;20008;-91
2023/06/13 07:38:28;;;;;;;5.75;3.22;;;;;;;;;;6223799;22;20358;-91
2023/06/13 07:40:54;;;;;;;7.88;3.28;;;;;;;;;;6248194;22;20440;-91
2023/06/13 07:43:20;;;;;;;5.82;2.97;;;;;;;;;;6223682;22;20323;-91
2023/06/13 07:45:52;;;;;;;3.88;2.72;;;;;;;;;;6243051;22;20055;-92
2023/06/13 07:48:21;;;;;;;6.70;2.53;;;;;;;;;;6218582;23;20419;-92
2023/06/13 07:50:48;;;;;;;5.93;3.00;;;;;;;;;;6218282;23;20008;-92
2023/06/13 07:53:14;;;;;;;3.75;2.75;;;;;;;;;;6243045;23;20445;-91
2023/06/13 07:55:45;;;;;;;4.03;2.80;;;;;;;;;;6218315;23;20398;-91
2023/06/13 07:58:16;;;;;;;14.52;3.40;;;;;;;;;;6219783;23;20561;-92
2023/06/13 08:00:46;;;;;;;4.25;3.20;;;;;;;;;;6242916;23;20000;-92
2023/06/13 08:03:13;;;;;;;3.47;2.70;;;;;;;;;;6218757;23;20012;-91
2023/06/13 08:05:39;;;;;;;5.30;2.50;;;;;;;;;;6218937;23;20078;-91
2023/06/13 08:08:05;;;;;;;5.38;3.08;;;;;;;;;;6218702;23;20092;-91
2023/06/13 08:10:31;;;;;;;6.80;3.00;;;;;;;;;;6218725;23;20012;-92
2023/06/13 08:13:00;;;;;;;5.80;2.80;;;;;;;;;;6218311;23;20335;-91
2023/06/13 08:15:26;;;;;;;8.73;3.17;;;;;;;;;;6218933;23;20008;-91
2023/06/13 08:17:57;;;;;;;4.60;3.20;;;;;;;;;;6218339;23;20062;-91
2023/06/13 08:20:26;;;;;;;8.52;3.67;;;;;;;;;;6245208;23;20022;-93
2023/06/13 08:22:53;;;;;;;6.75;2.95;;;;;;;;;;6219881;23;20008;-92
2023/06/13 08:25:19;;;;;;;4.90;3.08;;;;;;;;;;6220764;23;20430;-92
2023/06/13 08:27:55;;;;;;;8.05;3.15;;;;;;;;;;6246050;23;20023;-92
2023/06/13 08:30:27;;;;;;;;;;;;;;;;;;6224197;23;20020;-93
2023/06/13 08:32:54;;;;;;;7.43;3.40;;;;;;;;;;6249043;23;19948;-92
2023/06/13 08:35:23;;;;;;;8.05;2.90;;;;;;;;;;6225989;23;20046;-92
2023/06/13 08:37:49;;;;;;;5.82;2.92;;;;;;;;;;6226057;23;20416;-93
2023/06/13 08:40:24;;;;;;;5.60;3.00;;;;;;;;;;6229872;23;20019;-92
2023/06/13 08:42:50;;;;;;;6.60;3.17;;;;;;;;;;6230381;23;20027;-92
2023/06/13 08:45:17;;;;;;;5.72;3.55;;;;;;;;;;6254663;22;20042;-93
2023/06/13 08:47:46;;;;;;;14.50;3.53;;;;;;;;;;6228619;23;20008;-93
2023/06/13 08:50:24;;;;;;;6.38;3.58;;;;;;;;;;6227923;23;20058;-93
2023/06/13 08:52:51;;;;;;;5.68;3.13;;;;;;;;;;6251047;23;20083;-92
2023/06/13 08:55:22;;;;;;;4.72;3.17;;;;;;;;;;6251447;23;20018;-92
2023/06/13 08:57:52;;;;;;;3.58;3.20;;;;;;;;;;6252635;23;20032;-92
2023/06/13 09:00:18;;;;;;;6.22;3.03;;;;;;;;;;6249922;23;20004;-93
2023/06/13 09:02:45;;;;;;;6.20;2.97;;;;;;;;;;6248315;23;20428;-93
2023/06/13 09:05:13;;;;;;;4.82;3.00;;;;;;;;;;6222434;23;20008;-93
2023/06/13 09:07:40;;;;;;;5.63;3.20;;;;;;;;;;6247462;23;20004;-92
2023/06/13 09:10:10;;;;;;;6.57;3.78;;;;;;;;;;6220606;23;20012;-93
2023/06/13 09:12:43;;;;;;;3.88;3.00;;;;;;;;;;6245821;23;20028;-93
2023/06/13 09:15:10;;;;;;;6.95;3.10;;;;;;;;;;6244383;23;20012;-92
2023/06/13 09:17:37;;;;;;;10.45;3.70;;;;;;;;;;6245334;23;20000;-92
2023/06/13 09:20:09;;;;;;;10.55;3.25;;;;;;;;;;6222202;23;20028;-92
2023/06/13 09:25:25;;;;;;;4.05;3.08;;;;;;;;;;6232577;23;20012;-91
2023/06/13 09:28:29;;;;;;;5.60;3.35;;;;;;;;;;6247453;23;20376;-92
2023/06/13 09:30:58;;;;;;;5.22;2.80;;;;;;;;;;6248442;23;20038;-92
2023/06/13 09:33:28;;;;;;;6.43;3.30;;;;;;;;;;6223015;23;20083;-93
2023/06/13 09:35:55;;;;;;;9.57;3.15;;;;;;;;;;6220083;23;20087;-93
2023/06/13 09:38:25;;;;;;;7.00;2.90;;;;;;;;;;6244873;23;20019;-92
2023/06/13 09:40:57;;;;;;;4.13;2.63;;;;;;;;;;6244989;23;20016;-92
2023/06/13 09:43:23;;;;;;;16.98;4.82;;;;;;;;;;6246847;23;20016;-92
2023/06/13 09:45:50;;;;;;;5.32;3.13;;;;;;;;;;6244344;22;20047;-93
2023/06/13 09:48:20;;;;;;;6.43;2.90;;;;;;;;;;6219464;23;20012;-92
2023/06/13 09:50:46;;;;;;;5.38;2.95;;;;;;;;;;6244343;23;20004;-92
2023/06/13 09:53:12;;;;;;;5.38;3.13;;;;;;;;;;6218406;23;20067;-92
2023/06/13 09:55:42;;;;;;;4.63;3.20;;;;;;;;;;6243987;23;20080;-92
2023/06/13 09:58:08;;;;;;;12.57;3.35;;;;;;;;;;6242666;23;20011;-93
2023/06/13 10:00:42;;;;;;;11.68;4.22;;;;;;;;;;6241982;23;20004;-93
2023/06/13 10:03:08;;;;;;;6.43;2.88;;;;;;;;;;6243980;23;20004;-93
2023/06/13 10:05:34;;;;;;;6.80;2.88;;;;;;;;;;6243551;23;20019;-92
2023/06/13 10:08:03;;;;;;;7.93;4.05;;;;;;;;;;6218853;23;20408;-92
2023/06/13 10:10:33;;;;;;;5.10;3.40;;;;;;;;;;6242677;23;20066;-92
2023/06/13 10:13:03;;;;;;;7.05;3.20;;;;;;;;;;6242247;23;20031;-92
2023/06/13 10:15:29;;;;;;;6.00;3.08;;;;;;;;;;6242487;23;20008;-92
2023/06/13 10:18:06;;;;;;;5.85;3.13;;;;;;;;;;6242344;23;20024;-92
2023/06/13 10:20:39;;;;;;;7.78;3.22;;;;;;;;;;6243401;23;20016;-92
2023/06/13 10:23:08;;;;;;;4.32;3.10;;;;;;;;;;6242713;23;20015;-92
2023/06/13 10:25:41;;;;;;;11.43;3.10;;;;;;;;;;6218134;23;20004;-92
2023/06/13 10:28:29;;;;;;;7.60;2.83;;;;;;;;;;6218917;23;20004;-93
2023/06/13 10:31:15;;;;;;;5.63;3.38;;;;;;;;;;6241647;23;20070;-92
2023/06/13 10:34:00;;;;;;;4.38;2.92;;;;;;;;;;6242899;23;20008;-92
2023/06/13 10:36:43;;;;;;;3.17;2.65;;;;;;;;;;6242804;23;20007;-92
2023/06/13 10:39:34;;;;;;;5.32;3.25;;;;;;;;;;6242964;23;20012;-93
2023/06/13 10:42:06;;;;;;;5.30;2.63;;;;;;;;;;6242387;23;20033;-93
2023/06/13 10:45:00;;;;;;;5.80;3.03;;;;;;;;;;6247304;22;20026;-92
2023/06/13 10:47:32;;;;;;;9.50;2.95;;;;;;;;;;6247304;22;20023;-92
2023/06/13 10:49:59;;;;;;;5.15;2.83;;;;;;;;;;6248169;22;20014;-93
2023/06/13 10:52:35;;;;;;;5.72;2.90;;;;;;;;;;6249963;22;20030;-92
2023/06/13 10:55:02;;;;;;;6.18;3.15;;;;;;;;;;6250497;22;20019;-92
2023/06/13 11:00:38;;;;;;;9.38;2.72;;;;;;;;;;6277707;22;20375;-92
2023/06/13 11:03:06;;;;;;;3.45;2.47;;;;;;;;;;6226506;22;20004;-92
2023/06/13 11:05:48;;;;;;;5.20;2.67;;;;;;;;;;6252122;22;20008;-92
2023/06/13 11:08:18;;;;;;;9.70;3.10;;;;;;;;;;6250865;22;20058;-91
2023/06/13 11:10:53;;;;;;;6.88;2.65;;;;;;;;;;6226172;22;20015;-92
2023/06/13 11:13:45;;;;;;;9.75;3.50;;;;;;;;;;6250963;22;20007;-92
2023/06/13 11:16:30;;;;;;;4.75;2.75;;;;;;;;;;6229594;22;20000;-92
2023/06/13 11:18:56;;;;;;;9.70;2.80;;;;;;;;;;6250118;22;20008;-93
2023/06/13 11:21:22;;;;;;;4.68;2.42;;;;;;;;;;6225165;22;20069;-92
2023/06/13 11:23:50;;;;;;;4.05;2.63;;;;;;;;;;6250144;22;20031;-92
2023/06/13 11:26:19;;;;;;;7.13;2.58;;;;;;;;;;6251261;22;20007;-93
2023/06/13 11:28:47;;;;;;;4.22;2.28;;;;;;;;;;6226172;22;20012;-93
2023/06/13 11:31:13;;;;;;;4.80;2.50;;;;;;;;;;6251471;22;20007;-93
2023/06/13 11:33:45;;;;;;;4.38;2.38;;;;;;;;;;6225997;22;20018;-92
2023/06/13 11:36:12;;;;;;;3.67;2.30;;;;;;;;;;6252034;22;20433;-93
2023/06/13 11:38:40;;;;;;;7.90;2.30;;;;;;;;;;6251768;22;20012;-92
2023/06/13 11:41:06;;;;;;;5.03;2.67;;;;;;;;;;6250252;22;20035;-92
2023/06/13 11:43:34;;;;;;;4.78;2.72;;;;;;;;;;6251306;22;20014;-92
2023/06/13 11:46:21;;;;;;;9.48;2.63;;;;;;;;;;6246088;22;20055;-92
2023/06/13 11:48:57;;;;;;;6.57;2.88;;;;;;;;;;6246505;22;20126;-91
2023/06/13 11:51:24;;;;;;;3.15;2.30;;;;;;;;;;6246813;23;20035;-92
2023/06/13 11:53:52;;;;;;;9.85;2.47;;;;;;;;;;6246113;23;20015;-92
2023/06/13 11:56:19;;;;;;;6.00;2.50;;;;;;;;;;6245812;23;20073;-93
2023/06/13 11:58:46;;;;;;;5.10;2.42;;;;;;;;;;6244805;23;20008;-91
2023/06/13 12:01:15;;;;;;;5.53;2.10;;;;;;;;;;6245642;22;20059;-92
2023/06/13 12:03:42;;;;;;;4.45;2.10;;;;;;;;;;6244382;23;20019;-92
2023/06/13 12:06:08;;;;;;;6.03;2.58;;;;;;;;;;6244961;23;20008;-93
2023/06/13 12:08:37;;;;;;;5.20;2.40;;;;;;;;;;6219015;23;20456;-92
2023/06/13 12:11:08;;;;;;;7.45;2.83;;;;;;;;;;6245147;23;20473;-93
2023/06/13 12:13:36;;;;;;;13.20;3.15;;;;;;;;;;6244051;23;20027;-93
2023/06/13 12:16:07;;;;;;;8.02;2.72;;;;;;;;;;6218839;23;20444;-93
2023/06/13 12:18:35;;;;;;;8.98;2.50;;;;;;;;;;6245374;23;20408;-93
2023/06/13 12:21:11;;;;;;;3.20;2.58;;;;;;;;;;6244717;23;20078;-93
2023/06/13 12:23:37;;;;;;;11.13;2.65;;;;;;;;;;6220230;23;20154;-94
2023/06/13 12:29:23;;;;;;;4.38;3.63;;;;;;;;;;6183062;23;20016;-92
2023/06/13 12:32:06;;;;;;;3.42;2.65;;;;;;;;;;6159033;23;20001;-92
2023/06/13 12:34:35;;;;;;;9.43;2.65;;;;;;;;;;6205279;23;20498;-93
2023/06/13 12:37:13;;;;;;;8.73;2.47;;;;;;;;;;6223543;23;20031;-93
2023/06/13 12:40:03;;;;;;;4.60;2.90;;;;;;;;;;6221214;23;20358;-93
2023/06/13 12:42:43;;;;;;;5.38;2.90;;;;;;;;;;6244091;23;20004;-93
2023/06/13 12:45:25;;;;;;;4.53;2.30;;;;;;;;;;6249437;22;20016;-93
2023/06/13 12:48:15;;;;;;;3.22;2.25;;;;;;;;;;6248393;22;20008;-93
2023/06/13 12:50:42;;;;;;;6.22;2.00;;;;;;;;;;6248079;22;20377;-93
2023/06/13 12:53:09;;;;;;;6.65;2.38;;;;;;;;;;6223541;22;20093;-92
2023/06/13 12:55:38;;;;;;;2.42;2.15;;;;;;;;;;6223720;22;20015;-93
2023/06/13 12:58:26;;;;;;;11.18;2.35;;;;;;;;;;6248760;22;20030;-93
2023/06/13 13:00:58;;;;;;;5.25;2.53;;;;;;;;;;6249185;22;20027;-93
2023/06/13 13:03:24;;;;;;;5.50;2.28;;;;;;;;;;6223811;22;20441;-92
2023/06/13 13:05:50;;;;;;;6.55;2.45;;;;;;;;;;6223128;22;20024;-92
2023/06/13 13:08:22;;;;;;;6.43;2.47;;;;;;;;;;6248747;22;20015;-93
2023/06/13 13:10:51;;;;;;;8.77;2.38;;;;;;;;;;6249688;22;20003;-92
2023/06/13 13:13:36;;;;;;;6.20;2.47;;;;;;;;;;6248227;22;20468;-93
2023/06/13 13:16:03;;;;;;;14.30;2.97;;;;;;;;;;6248068;22;20522;-93
2023/06/13 13:18:29;;;;;;;4.63;2.47;;;;;;;;;;6223526;22;20007;-94
2023/06/13 13:20:59;;;;;;;6.45;2.40;;;;;;;;;;6223179;22;20016;-93
2023/06/13 13:23:25;;;;;;;6.70;2.30;;;;;;;;;;6225126;22;20042;-93
2023/06/13 13:25:51;;;;;;;9.63;2.53;;;;;;;;;;6224923;22;20018;-91
2023/06/13 13:28:17;;;;;;;3.80;2.60;;;;;;;;;;6224953;22;20062;-92
2023/06/13 13:30:44;;;;;;;5.28;2.45;;;;;;;;;;6223459;22;20049;-92
2023/06/13 13:33:14;;;;;;;7.45;3.90;;;;;;;;;;6224392;22;20007;-93
2023/06/13 13:35:41;;;;;;;5.47;2.30;;;;;;;;;;6251321;22;20007;-93
2023/06/13 13:38:43;;;;;;;4.70;2.30;;;;;;;;;;6224903;22;20066;-93
2023/06/13 13:41:10;;;;;;;4.97;2.30;;;;;;;;;;6156546;23;20353;-93
2023/06/13 13:43:36;;;;;;;4.32;2.30;;;;;;;;;;6210486;22;20008;-93
2023/06/13 13:46:02;;;;;;;8.10;2.50;;;;;;;;;;6221900;22;20028;-93
2023/06/13 13:48:28;;;;;;;6.10;2.55;;;;;;;;;;6251810;23;20004;-92
2023/06/13 13:50:55;;;;;;;7.25;2.20;;;;;;;;;;6231078;23;20007;-93
2023/06/13 13:53:21;;;;;;;4.60;2.47;;;;;;;;;;6231665;23;20024;-93
2023/06/13 13:55:47;;;;;;;6.82;3.90;;;;;;;;;;6226722;23;20062;-93
2023/06/13 13:58:16;;;;;;;11.70;2.78;;;;;;;;;;6229946;23;20024;-93
2023/06/13 14:00:46;;;;;;;4.05;2.63;;;;;;;;;;6227426;23;20068;-93
2023/06/13 14:03:12;;;;;;;3.60;2.50;;;;;;;;;;6253952;23;20012;-93
2023/06/13 14:05:39;;;;;;;5.25;2.58;;;;;;;;;;6252839;23;20030;-93
2023/06/13 14:08:06;;;;;;;4.07;2.58;;;;;;;;;;6230627;23;20027;-94
2023/06/13 14:10:32;;;;;;;8.80;2.92;;;;;;;;;;6234569;23;20012;-93
2023/06/13 14:13:05;;;;;;;5.22;2.30;;;;;;;;;;6262747;23;20004;-93
2023/06/13 14:15:34;;;;;;;7.43;2.55;;;;;;;;;;6241106;23;20004;-93
2023/06/13 14:18:00;;;;;;;9.25;2.50;;;;;;;;;;6239873;23;20004;-93
2023/06/13 14:20:26;;;;;;;5.50;2.47;;;;;;;;;;6240338;23;20036;-93
2023/06/13 14:22:53;;;;;;;12.13;2.70;;;;;;;;;;6241173;23;19996;-93
2023/06/13 14:25:37;;;;;;;4.75;2.60;;;;;;;;;;6241977;23;20004;-94
2023/06/13 14:28:21;;;;;;;5.30;2.65;;;;;;;;;;6239454;23;20020;-93
2023/06/13 14:30:47;;;;;;;3.72;2.40;;;;;;;;;;6231574;23;20236;-94
2023/06/13 14:33:14;;;;;;;4.57;2.28;;;;;;;;;;6254275;23;20000;-93
2023/06/13 14:35:49;;;;;;;4.40;2.00;;;;;;;;;;6253137;23;20008;-93
2023/06/13 14:38:19;;;;;;;5.50;2.95;;;;;;;;;;6228950;23;20066;-94
2023/06/13 14:40:48;;;;;;;6.13;2.55;;;;;;;;;;6225603;23;20062;-92
2023/06/13 14:43:33;;;;;;;9.00;2.45;;;;;;;;;;6248940;23;20004;-93
2023/06/13 14:46:08;;;;;;;3.97;2.30;;;;;;;;;;6248154;22;20016;-93
2023/06/13 14:48:37;;;;;;;6.63;2.83;;;;;;;;;;6222294;23;20054;-94
2023/06/13 14:51:04;;;;;;;8.73;2.50;;;;;;;;;;6222564;23;20130;-94
2023/06/13 14:53:35;;;;;;;4.63;2.45;;;;;;;;;;6247374;23;20371;-94
2023/06/13 14:56:04;;;;;;;7.57;2.97;;;;;;;;;;6246086;23;20006;-94
2023/06/13 14:58:49;;;;;;;5.18;2.50;;;;;;;;;;6221541;23;20042;-93
2023/06/13 15:01:15;;;;;;;7.85;2.72;;;;;;;;;;6225812;23;20085;-93
2023/06/13 15:03:45;;;;;;;2.80;2.30;;;;;;;;;;6220848;23;20019;-94
2023/06/13 15:06:13;;;;;;;3.70;2.20;;;;;;;;;;6221887;23;20022;-94
2023/06/13 15:08:43;;;;;;;3.05;2.40;;;;;;;;;;6219644;23;20008;-93
2023/06/13 15:11:10;;;;;;;3.53;2.00;;;;;;;;;;6221118;23;20008;-93
2023/06/13 15:13:37;;;;;;;6.03;2.60;;;;;;;;;;6245011;23;20008;-94
2023/06/13 15:16:10;;;;;;;9.05;2.88;;;;;;;;;;6243625;23;20036;-93
2023/06/13 15:18:36;;;;;;;3.03;2.45;;;;;;;;;;6243868;23;20027;-92
2023/06/13 15:21:06;;;;;;;19.48;2.90;;;;;;;;;;6241049;23;20066;-93
2023/06/13 15:23:32;;;;;;;5.03;3.17;;;;;;;;;;6218506;23;20115;-93